Time;durP1;ratioP1;P1;durP2;ratioP2;P2;SDS_P1;SDS_P2;PMS_P1;PMS_P2;Temp;Humidity;BMP_temperature;BMP_pressure;BME280_temperature;BME280_humidity;BME280_pressure;Samples;Min_cycle;Max_cycle;Signal;HPM_P1;HPM_P2
2023/09/15 00:00:23;;;;;;;6.88;5.85;;;563.80;2432.00;;;;;;5088870;28;20027;-61
2023/09/15 00:02:51;;;;;;;9.23;6.78;;;563.80;2432.00;;;;;;5089020;28;20020;-61
2023/09/15 00:05:16;;;;;;;7.20;6.43;;;563.80;2432.00;;;;;;5063454;28;20031;-61
2023/09/15 00:07:42;;;;;;;10.27;6.13;;;563.80;2432.00;;;;;;5070933;28;20033;-61
2023/09/15 00:10:11;;;;;;;10.32;6.20;;;563.70;2432.00;;;;;;5086489;28;20020;-61
2023/09/15 00:12:38;;;;;;;7.32;5.88;;;563.60;2432.00;;;;;;5088703;28;20047;-61
2023/09/15 00:15:07;;;;;;;8.50;7.13;;;563.60;2432.00;;;;;;5088305;28;20016;-61
2023/09/15 00:17:37;;;;;;;8.40;7.18;;;563.60;2432.00;;;;;;5089183;28;20020;-61
2023/09/15 00:20:11;;;;;;;9.98;7.05;;;563.60;2432.00;;;;;;5090471;28;20012;-60
2023/09/15 00:22:37;;;;;;;9.63;6.65;;;563.60;2432.00;;;;;;5092619;28;20035;-62
2023/09/15 00:25:03;;;;;;;9.30;7.18;;;563.60;2432.00;;;;;;5093190;28;20023;-61
2023/09/15 00:27:30;;;;;;;7.40;6.68;;;563.60;2432.00;;;;;;5092428;28;20035;-61
2023/09/15 00:29:56;;;;;;;7.45;6.68;;;563.60;2432.00;;;;;;5092705;28;20024;-62
2023/09/15 00:32:22;;;;;;;9.55;7.35;;;563.50;2432.00;;;;;;5092097;28;20035;-62
2023/09/15 00:34:47;;;;;;;7.88;6.80;;;563.50;2432.00;;;;;;5089956;28;20031;-61
2023/09/15 00:37:13;;;;;;;8.90;7.18;;;563.40;2432.00;;;;;;5066220;28;20111;-61
2023/09/15 00:39:39;;;;;;;7.90;6.68;;;563.40;2432.00;;;;;;5092430;28;20089;-61
2023/09/15 00:42:04;;;;;;;13.93;6.78;;;563.20;2432.00;;;;;;5092577;28;20028;-61
2023/09/15 00:44:30;;;;;;;9.15;7.38;;;563.20;2432.00;;;;;;5085266;28;20070;-61
2023/09/15 00:46:56;;;;;;;10.65;7.35;;;563.20;2432.00;;;;;;5085778;28;20028;-62
2023/09/15 00:49:22;;;;;;;10.35;7.00;;;563.20;2432.00;;;;;;5092515;28;20028;-61
2023/09/15 00:51:48;;;;;;;8.05;6.50;;;563.20;2432.00;;;;;;5091867;28;20072;-59
2023/09/15 00:54:14;;;;;;;7.40;6.00;;;563.20;2432.00;;;;;;5092664;28;20401;-61
2023/09/15 00:56:40;;;;;;;11.00;6.53;;;563.20;2432.00;;;;;;5092612;28;20026;-61
2023/09/15 00:59:07;;;;;;;10.85;6.93;;;563.20;2432.00;;;;;;5092414;28;20099;-59
2023/09/15 01:01:34;;;;;;;9.43;6.75;;;538.50;2406.40;;;;;;5092369;28;20024;-61
2023/09/15 01:04:00;;;;;;;8.40;6.38;;;563.20;2432.00;;;;;;5092330;28;20048;-61
2023/09/15 01:06:26;;;;;;;9.20;7.05;;;563.20;2432.00;;;;;;5075850;28;20071;-61
2023/09/15 01:08:52;;;;;;;6.93;6.22;;;538.50;2406.40;;;;;;5086933;28;20036;-62
2023/09/15 01:11:17;;;;;;;7.80;6.30;;;563.20;2432.00;;;;;;5076030;28;20037;-61
2023/09/15 01:13:43;;;;;;;8.57;6.93;;;563.20;2432.00;;;;;;5074944;28;20533;-60
2023/09/15 01:16:33;;;;;;;7.82;6.97;;;563.20;2432.00;;;;;;5086939;28;20370;-61
2023/09/15 01:19:29;;;;;;;7.45;5.95;;;563.20;2432.00;;;;;;5075318;28;20028;-60
2023/09/15 01:22:16;;;;;;;9.50;6.82;;;538.50;2406.40;;;;;;5091734;28;20032;-62
2023/09/15 01:24:53;;;;;;;7.07;6.38;;;563.20;2432.00;;;;;;5091535;28;20031;-61
2023/09/15 01:27:45;;;;;;;7.28;6.47;;;538.50;2406.40;;;;;;5091581;28;20099;-60
2023/09/15 01:30:12;;;;;;;8.57;6.60;;;538.50;2406.40;;;;;;5091774;28;20032;-61
2023/09/15 01:32:41;;;;;;;10.48;7.47;;;563.20;2432.00;;;;;;5090418;28;20407;-61
2023/09/15 01:35:07;;;;;;;6.90;6.20;;;563.20;2432.00;;;;;;5091572;28;20424;-61
2023/09/15 01:37:33;;;;;;;10.45;6.97;;;538.50;2406.40;;;;;;5091327;28;20536;-60
2023/09/15 01:39:59;;;;;;;7.72;6.65;;;538.50;2406.40;;;;;;5075295;28;20044;-60
2023/09/15 01:42:25;;;;;;;9.25;7.20;;;538.50;2406.40;;;;;;5079035;28;20468;-60
2023/09/15 01:44:51;;;;;;;7.72;5.97;;;538.50;2406.40;;;;;;5091455;28;20060;-61
2023/09/15 01:47:21;;;;;;;8.27;6.43;;;538.50;2406.40;;;;;;5090881;28;20044;-61
2023/09/15 01:49:51;;;;;;;7.13;6.43;;;538.50;2406.40;;;;;;5091191;28;20028;-61
2023/09/15 01:52:17;;;;;;;7.28;6.57;;;;;;;;;;5091202;28;20115;-61
2023/09/15 01:54:43;;;;;;;12.77;7.22;;;538.50;2406.40;;;;;;5091561;28;20374;-61
2023/09/15 01:57:09;;;;;;;8.13;6.68;;;538.40;2406.40;;;;;;5091047;28;20016;-60
2023/09/15 01:59:35;;;;;;;8.27;7.22;;;538.50;2406.40;;;;;;5091321;28;20024;-61
2023/09/15 02:02:00;;;;;;;8.35;7.20;;;538.30;2406.40;;;;;;5090700;28;20073;-61
2023/09/15 02:04:26;;;;;;;10.27;7.57;;;538.30;2406.40;;;;;;5091139;28;20048;-60
2023/09/15 02:06:52;;;;;;;7.95;7.13;;;538.30;2406.40;;;;;;5090550;28;20069;-61
2023/09/15 02:09:18;;;;;;;6.72;6.03;;;538.40;2406.40;;;;;;5090866;28;20521;-61
2023/09/15 02:11:44;;;;;;;11.90;7.35;;;538.50;2406.40;;;;;;5090491;28;20039;-61
2023/09/15 02:14:10;;;;;;;9.57;7.30;;;538.50;2406.40;;;;;;5072896;28;20017;-60
2023/09/15 02:16:35;;;;;;;9.07;6.43;;;538.50;2406.40;;;;;;5073164;28;20056;-61
2023/09/15 02:19:02;;;;;;;9.32;6.28;;;538.40;2406.40;;;;;;5084583;28;20661;-60
2023/09/15 02:21:29;;;;;;;7.80;6.70;;;538.50;2406.40;;;;;;5088654;28;20442;-61
2023/09/15 02:23:55;;;;;;;10.23;6.07;;;538.50;2406.40;;;;;;5088857;28;20058;-62
2023/09/15 02:26:21;;;;;;;7.93;6.47;;;538.30;2406.40;;;;;;5088522;28;20482;-60
2023/09/15 02:28:47;;;;;;;7.05;5.75;;;538.40;2406.40;;;;;;5090747;28;20024;-61
2023/09/15 02:31:13;;;;;;;8.63;6.78;;;538.20;2406.40;;;;;;5089758;28;20099;-60
2023/09/15 02:33:38;;;;;;;7.10;6.38;;;538.30;2406.40;;;;;;5089889;28;20122;-61
2023/09/15 02:36:04;;;;;;;8.88;6.93;;;538.20;2406.40;;;;;;5090296;28;20016;-61
2023/09/15 02:38:30;;;;;;;8.05;6.35;;;538.30;2406.40;;;;;;5090056;28;20082;-61
2023/09/15 02:40:56;;;;;;;8.90;6.75;;;538.10;2406.40;;;;;;5089742;28;20486;-62
2023/09/15 02:43:21;;;;;;;9.40;7.45;;;538.00;2406.40;;;;;;5090121;28;20036;-61
2023/09/15 02:45:47;;;;;;;10.88;7.65;;;538.00;2406.40;;;;;;5074098;28;20488;-61
2023/09/15 02:48:13;;;;;;;8.93;6.53;;;538.00;2406.40;;;;;;5073502;28;20116;-60
2023/09/15 02:50:42;;;;;;;10.95;6.93;;;537.90;2406.40;;;;;;5088211;28;20423;-61
2023/09/15 02:53:09;;;;;;;7.78;6.45;;;537.80;2406.40;;;;;;5090099;28;20043;-59
2023/09/15 02:55:37;;;;;;;9.25;7.32;;;537.80;2406.40;;;;;;5089942;28;20397;-61
2023/09/15 02:58:04;;;;;;;8.45;7.15;;;537.60;2406.40;;;;;;5090185;28;20111;-60
2023/09/15 03:00:30;;;;;;;12.48;7.45;;;537.60;2406.40;;;;;;5089303;28;20028;-61
2023/09/15 03:02:56;;;;;;;7.40;6.40;;;537.60;2406.40;;;;;;5089778;28;20044;-61
2023/09/15 03:05:22;;;;;;;10.48;6.82;;;537.60;2406.40;;;;;;5089456;28;20063;-61
2023/09/15 03:07:47;;;;;;;8.32;6.95;;;537.60;2406.40;;;;;;5089762;28;20398;-61
2023/09/15 03:10:13;;;;;;;8.30;7.10;;;537.60;2406.40;;;;;;5089557;28;20024;-60
2023/09/15 03:12:39;;;;;;;7.97;6.93;;;512.90;2380.80;;;;;;5089419;28;20062;-61
2023/09/15 03:15:09;;;;;;;7.32;6.63;;;537.60;2406.40;;;;;;5089758;28;20012;-61
2023/09/15 03:17:36;;;;;;;7.82;6.88;;;537.60;2406.40;;;;;;5081340;28;20024;-61
2023/09/15 03:20:15;;;;;;;7.88;6.38;;;537.60;2406.40;;;;;;5064225;28;20108;-61
2023/09/15 03:22:42;;;;;;;9.50;7.15;;;537.60;2406.40;;;;;;5053724;28;20025;-61
2023/09/15 03:25:08;;;;;;;7.60;6.82;;;537.70;2406.40;;;;;;5061495;28;20068;-61
2023/09/15 03:27:34;;;;;;;10.05;7.05;;;537.60;2406.40;;;;;;5081177;28;20105;-60
2023/09/15 03:30:00;;;;;;;8.50;6.57;;;537.60;2406.40;;;;;;5084422;28;20058;-59
2023/09/15 03:32:26;;;;;;;8.45;6.28;;;537.60;2406.40;;;;;;5085960;28;20043;-60
2023/09/15 03:34:52;;;;;;;11.30;6.85;;;512.90;2380.80;;;;;;5085701;28;20032;-61
2023/09/15 03:37:17;;;;;;;9.05;7.22;;;512.90;2380.80;;;;;;5077660;28;20524;-60
2023/09/15 03:39:43;;;;;;;7.95;7.15;;;512.90;2380.80;;;;;;5079773;28;20044;-60
2023/09/15 03:42:09;;;;;;;7.75;6.88;;;512.80;2380.80;;;;;;5087226;28;20138;-60
2023/09/15 03:44:35;;;;;;;7.53;6.43;;;512.80;2380.80;;;;;;5086961;28;20032;-60
2023/09/15 03:47:00;;;;;;;8.77;7.20;;;512.80;2380.80;;;;;;5086035;28;20111;-60
2023/09/15 03:49:26;;;;;;;7.90;6.97;;;512.70;2380.80;;;;;;5084903;28;20417;-61
2023/09/15 03:51:52;;;;;;;9.98;7.28;;;512.60;2380.80;;;;;;5083228;28;20428;-61
2023/09/15 03:54:18;;;;;;;9.68;7.05;;;512.70;2380.80;;;;;;5075776;28;20027;-61
2023/09/15 03:56:44;;;;;;;9.35;6.72;;;512.60;2380.80;;;;;;5082980;28;20077;-59
2023/09/15 03:59:10;;;;;;;9.18;6.78;;;512.50;2380.80;;;;;;5076596;28;20024;-60
2023/09/15 04:01:35;;;;;;;8.65;7.72;;;512.80;2380.80;;;;;;5086876;28;20428;-62
2023/09/15 04:04:02;;;;;;;7.95;7.15;;;512.70;2380.80;;;;;;5088840;28;20055;-60
2023/09/15 04:06:28;;;;;;;7.57;6.80;;;512.80;2380.80;;;;;;5088452;28;20077;-61
2023/09/15 04:08:55;;;;;;;8.05;6.95;;;512.80;2380.80;;;;;;5089432;28;20028;-60
2023/09/15 04:11:20;;;;;;;8.18;7.25;;;512.80;2380.80;;;;;;5088612;28;20032;-61
2023/09/15 04:13:46;;;;;;;9.07;7.40;;;512.70;2380.80;;;;;;5088634;28;20031;-62
2023/09/15 04:16:12;;;;;;;11.82;8.48;;;512.70;2380.80;;;;;;5088662;28;20054;-60
2023/09/15 04:18:37;;;;;;;7.82;7.03;;;512.60;2380.80;;;;;;5088866;28;20031;-61
2023/09/15 04:21:04;;;;;;;11.77;8.35;;;512.60;2380.80;;;;;;5089145;28;20377;-61
2023/09/15 04:23:30;;;;;;;9.60;8.38;;;512.60;2380.80;;;;;;5083231;28;20118;-61
2023/09/15 04:25:56;;;;;;;8.23;7.43;;;512.50;2380.80;;;;;;5075076;28;20157;-61
2023/09/15 04:28:22;;;;;;;11.23;8.88;;;512.50;2380.80;;;;;;5082074;28;20114;-61
2023/09/15 04:30:48;;;;;;;10.38;8.00;;;512.40;2380.80;;;;;;5086996;28;20102;-60
2023/09/15 04:33:14;;;;;;;10.05;8.25;;;512.40;2380.80;;;;;;5082421;28;20166;-60
2023/09/15 04:35:40;;;;;;;10.60;8.32;;;512.30;2380.80;;;;;;5087179;28;20529;-60
2023/09/15 04:38:06;;;;;;;9.38;8.10;;;512.20;2380.80;;;;;;5088426;28;20027;-61
2023/09/15 04:40:32;;;;;;;10.43;8.50;;;512.20;2380.80;;;;;;5082421;28;20514;-61
2023/09/15 04:42:59;;;;;;;8.63;7.78;;;512.20;2380.80;;;;;;5069700;28;20031;-61
2023/09/15 04:45:25;;;;;;;10.10;9.10;;;512.30;2380.80;;;;;;5088608;28;20496;-61
2023/09/15 04:47:51;;;;;;;11.00;8.38;;;512.40;2380.80;;;;;;5087947;28;20463;-61
2023/09/15 04:50:17;;;;;;;11.48;7.88;;;512.50;2380.80;;;;;;5068518;28;20032;-59
2023/09/15 04:52:42;;;;;;;10.38;8.30;;;512.50;2380.80;;;;;;5066527;28;20106;-61
2023/09/15 04:55:08;;;;;;;9.52;8.38;;;512.50;2380.80;;;;;;5083620;28;20040;-59
2023/09/15 04:57:34;;;;;;;9.45;7.82;;;512.70;2380.80;;;;;;5088871;28;20028;-60
2023/09/15 05:00:01;;;;;;;9.60;8.65;;;512.90;2380.80;;;;;;5089083;28;20085;-61
2023/09/15 05:02:30;;;;;;;9.85;7.93;;;537.70;2406.40;;;;;;5073500;28;20028;-61
2023/09/15 05:04:56;;;;;;;10.43;8.90;;;537.90;2406.40;;;;;;5082124;28;20493;-61
2023/09/15 05:07:21;;;;;;;9.85;8.85;;;537.90;2406.40;;;;;;5090906;28;20059;-62
2023/09/15 05:09:47;;;;;;;8.68;7.70;;;537.90;2406.40;;;;;;5091810;28;20484;-61
2023/09/15 05:12:16;;;;;;;13.70;8.75;;;538.00;2406.40;;;;;;5090281;28;20433;-60
2023/09/15 05:14:42;;;;;;;10.02;8.57;;;538.20;2406.40;;;;;;5083292;28;20099;-61
2023/09/15 05:17:08;;;;;;;12.65;8.32;;;538.50;2406.40;;;;;;5091927;28;20426;-60
2023/09/15 05:19:34;;;;;;;8.90;7.97;;;563.20;2432.00;;;;;;5091528;28;20020;-61
2023/09/15 05:21:59;;;;;;;10.77;8.18;;;563.40;2432.00;;;;;;5075618;28;20077;-60
2023/09/15 05:24:25;;;;;;;10.95;8.95;;;563.50;2432.00;;;;;;5071881;28;20458;-61
2023/09/15 05:26:51;;;;;;;11.00;9.20;;;563.40;2432.00;;;;;;5088732;28;20023;-61
2023/09/15 05:29:17;;;;;;;9.27;8.38;;;563.30;2432.00;;;;;;5091590;28;20028;-61
2023/09/15 05:31:42;;;;;;;10.68;8.50;;;563.40;2432.00;;;;;;5086247;28;20028;-60
2023/09/15 05:34:09;;;;;;;11.63;8.68;;;563.90;2432.00;;;;;;5064793;28;20036;-60
2023/09/15 05:36:35;;;;;;;9.25;8.35;;;563.70;2432.00;;;;;;5085574;28;20024;-61
2023/09/15 05:39:01;;;;;;;10.73;9.23;;;563.70;2432.00;;;;;;5078420;28;20197;-61
2023/09/15 05:41:26;;;;;;;15.43;9.38;;;563.20;2432.00;;;;;;5091632;28;20489;-60
2023/09/15 05:43:52;;;;;;;9.43;8.52;;;563.20;2432.00;;;;;;5091137;28;20114;-61
2023/09/15 05:46:18;;;;;;;11.98;9.38;;;563.30;2432.00;;;;;;5089449;28;20127;-61
2023/09/15 05:48:44;;;;;;;11.90;10.02;;;538.50;2406.40;;;;;;5089457;28;20114;-61
2023/09/15 05:51:10;;;;;;;16.55;10.65;;;538.50;2406.40;;;;;;5090026;28;20039;-61
2023/09/15 05:53:36;;;;;;;12.45;10.65;;;538.50;2406.40;;;;;;5089520;28;20031;-61
2023/09/15 05:56:02;;;;;;;13.63;10.55;;;538.50;2406.40;;;;;;5089994;28;20036;-61
2023/09/15 05:58:27;;;;;;;13.38;10.43;;;538.50;2406.40;;;;;;5088056;28;20374;-61
2023/09/15 06:00:55;;;;;;;13.68;10.43;;;538.50;2406.40;;;;;;5089253;28;20089;-61
2023/09/15 06:03:28;;;;;;;17.00;10.02;;;538.50;2406.40;;;;;;5089268;28;20024;-61
2023/09/15 06:05:54;;;;;;;14.02;9.85;;;563.30;2432.00;;;;;;5077469;28;20491;-61
2023/09/15 06:08:20;;;;;;;10.35;9.32;;;563.30;2432.00;;;;;;5077080;28;20036;-61
2023/09/15 06:10:47;;;;;;;11.50;10.30;;;563.40;2432.00;;;;;;5083994;28;20032;-62
2023/09/15 06:13:14;;;;;;;13.05;9.73;;;563.40;2432.00;;;;;;5085343;28;20035;-61
2023/09/15 06:15:40;;;;;;;11.07;9.35;;;563.50;2432.00;;;;;;5086384;28;20420;-61
2023/09/15 06:18:05;;;;;;;9.82;8.82;;;563.50;2432.00;;;;;;5088401;28;20116;-61
2023/09/15 06:20:31;;;;;;;10.77;9.48;;;563.40;2432.00;;;;;;5088437;28;20474;-61
2023/09/15 06:22:58;;;;;;;11.70;10.52;;;538.50;2406.40;;;;;;5089039;28;20366;-61
2023/09/15 06:25:23;;;;;;;11.15;9.95;;;563.30;2432.00;;;;;;5071501;28;20032;-61
2023/09/15 06:27:49;;;;;;;11.80;10.60;;;563.20;2432.00;;;;;;5068144;28;20039;-60
2023/09/15 06:30:15;;;;;;;11.25;9.65;;;563.30;2432.00;;;;;;5069761;28;20493;-62
2023/09/15 06:32:41;;;;;;;12.52;11.13;;;563.40;2432.00;;;;;;5068586;28;20463;-60
2023/09/15 06:35:12;;;;;;;19.52;10.65;;;563.30;2432.00;;;;;;5068603;28;20025;-60
2023/09/15 06:37:39;;;;;;;11.30;10.10;;;563.50;2432.00;;;;;;5070230;28;20024;-60
2023/09/15 06:40:06;;;;;;;11.10;10.00;;;563.50;2432.00;;;;;;5062140;28;20040;-61
2023/09/15 06:42:32;;;;;;;12.43;10.13;;;563.50;2432.00;;;;;;5065637;28;20119;-61
2023/09/15 06:44:57;;;;;;;12.95;11.55;;;563.40;2432.00;;;;;;5069007;28;20522;-60
2023/09/15 06:47:23;;;;;;;11.60;10.30;;;563.40;2432.00;;;;;;5066382;28;20386;-61
2023/09/15 06:49:49;;;;;;;18.30;10.60;;;563.60;2432.00;;;;;;5069464;28;20073;-61
2023/09/15 06:52:15;;;;;;;14.95;10.38;;;563.60;2432.00;;;;;;5067397;28;20170;-61
2023/09/15 06:54:41;;;;;;;13.45;10.02;;;563.60;2432.00;;;;;;5071153;28;20108;-61
2023/09/15 06:57:06;;;;;;;16.83;12.30;;;563.50;2432.00;;;;;;5076426;28;20033;-61
2023/09/15 06:59:32;;;;;;;17.38;11.38;;;563.50;2432.00;;;;;;5073111;28;20031;-61
2023/09/15 07:01:59;;;;;;;16.77;12.25;;;563.40;2432.00;;;;;;5068046;28;20502;-61
2023/09/15 07:04:25;;;;;;;14.25;12.15;;;563.30;2432.00;;;;;;5067150;28;20028;-60
2023/09/15 07:06:51;;;;;;;13.10;11.75;;;563.30;2432.00;;;;;;5079473;28;20037;-61
2023/09/15 07:09:16;;;;;;;12.27;10.88;;;563.30;2432.00;;;;;;5076179;28;20020;-60
2023/09/15 07:11:42;;;;;;;13.60;12.15;;;563.40;2432.00;;;;;;5082774;28;20150;-61
2023/09/15 07:14:08;;;;;;;12.90;11.50;;;563.20;2432.00;;;;;;5080085;28;20024;-61
2023/09/15 07:16:34;;;;;;;14.35;12.02;;;563.30;2432.00;;;;;;5067057;28;20139;-61
2023/09/15 07:18:59;;;;;;;15.45;13.77;;;563.40;2432.00;;;;;;5085822;28;20030;-60
2023/09/15 07:21:25;;;;;;;16.85;12.10;;;563.60;2432.00;;;;;;5077313;28;20094;-61
2023/09/15 07:23:51;;;;;;;16.30;12.32;;;563.40;2432.00;;;;;;5086259;28;20027;-61
2023/09/15 07:26:17;;;;;;;14.88;12.40;;;563.60;2432.00;;;;;;5080218;28;20029;-61
2023/09/15 07:28:43;;;;;;;16.23;12.30;;;563.50;2432.00;;;;;;5067577;28;20028;-61
2023/09/15 07:31:10;;;;;;;22.33;15.13;;;563.50;2432.00;;;;;;5067427;28;20024;-61
2023/09/15 07:33:36;;;;;;;16.52;13.27;;;563.60;2432.00;;;;;;5068581;28;20429;-63
2023/09/15 07:36:04;;;;;;;19.83;13.25;;;563.60;2432.00;;;;;;5069565;28;20020;-60
2023/09/15 07:38:31;;;;;;;20.13;13.15;;;563.40;2432.00;;;;;;5067210;28;20494;-61
2023/09/15 07:40:57;;;;;;;14.38;12.65;;;563.40;2432.00;;;;;;5081989;28;20029;-61
2023/09/15 07:43:23;;;;;;;15.15;13.63;;;563.40;2432.00;;;;;;5064926;28;20036;-61
2023/09/15 07:45:53;;;;;;;16.15;12.90;;;538.50;2406.40;;;;;;5064000;28;20024;-61
2023/09/15 07:48:18;;;;;;;18.17;13.63;;;563.20;2432.00;;;;;;5069959;28;20037;-61
2023/09/15 07:50:44;;;;;;;16.50;13.30;;;538.50;2406.40;;;;;;5086520;28;20023;-60
2023/09/15 07:53:10;;;;;;;16.23;14.52;;;538.40;2406.40;;;;;;5087968;28;20123;-61
2023/09/15 07:55:36;;;;;;;15.30;13.57;;;563.20;2432.00;;;;;;5087373;28;20027;-62
2023/09/15 07:58:02;;;;;;;17.88;15.32;;;538.50;2406.40;;;;;;5066770;28;20383;-61
2023/09/15 08:00:27;;;;;;;20.00;15.57;;;563.20;2432.00;;;;;;5066231;28;20044;-61
2023/09/15 08:02:53;;;;;;;16.45;13.40;;;563.30;2432.00;;;;;;5066556;28;20025;-61
2023/09/15 08:05:19;;;;;;;13.88;12.10;;;563.60;2432.00;;;;;;5071958;28;20474;-61
2023/09/15 08:07:46;;;;;;;17.45;14.32;;;563.70;2432.00;;;;;;5078830;28;20017;-61
2023/09/15 08:10:13;;;;;;;17.02;14.20;;;563.80;2432.00;;;;;;5062126;28;20020;-61
2023/09/15 08:12:39;;;;;;;13.77;12.10;;;563.70;2432.00;;;;;;5064839;28;20044;-60
2023/09/15 08:15:05;;;;;;;14.50;12.27;;;563.70;2432.00;;;;;;5070229;28;20017;-61
2023/09/15 08:17:32;;;;;;;19.20;12.35;;;563.70;2432.00;;;;;;5065098;28;20024;-61
2023/09/15 08:19:58;;;;;;;12.90;11.60;;;563.90;2432.00;;;;;;5073983;28;20070;-61
2023/09/15 08:22:25;;;;;;;14.70;12.32;;;588.80;2432.00;;;;;;5082417;28;20086;-61
2023/09/15 08:24:51;;;;;;;15.60;11.38;;;589.20;2432.00;;;;;;5067879;28;20028;-61
2023/09/15 08:27:18;;;;;;;14.95;11.65;;;589.50;2432.00;;;;;;5069015;28;20540;-61
2023/09/15 08:29:43;;;;;;;17.52;12.32;;;615.00;2432.00;;;;;;5081325;28;20093;-61
2023/09/15 08:32:12;;;;;;;16.48;12.13;;;614.90;2432.00;;;;;;5075155;28;20028;-60
2023/09/15 08:34:38;;;;;;;13.80;10.90;;;615.20;2432.00;;;;;;5088665;28;20035;-61
2023/09/15 08:37:04;;;;;;;14.10;11.20;;;615.00;2432.00;;;;;;5089061;28;20023;-61
2023/09/15 08:39:30;;;;;;;12.85;11.25;;;614.90;2432.00;;;;;;5088305;28;20497;-60
2023/09/15 08:42:03;;;;;;;12.35;10.82;;;615.10;2432.00;;;;;;5091616;28;20440;-62
2023/09/15 08:44:32;;;;;;;11.15;10.00;;;614.60;2432.00;;;;;;5092485;28;20024;-61
2023/09/15 08:47:00;;;;;;;16.45;12.52;;;589.60;2432.00;;;;;;5091689;28;20062;-61
2023/09/15 08:49:28;;;;;;;14.45;12.63;;;589.50;2432.00;;;;;;5076650;28;20486;-62
2023/09/15 08:51:58;;;;;;;16.20;11.07;;;589.60;2432.00;;;;;;5076088;28;20497;-61
2023/09/15 08:54:24;;;;;;;12.80;10.32;;;614.50;2432.00;;;;;;5092600;28;20478;-61
2023/09/15 08:56:50;;;;;;;17.40;11.25;;;614.50;2432.00;;;;;;5092203;28;20027;-62
2023/09/15 08:59:17;;;;;;;13.50;12.20;;;615.00;2432.00;;;;;;5092512;28;20488;-61
2023/09/15 09:01:43;;;;;;;16.05;11.57;;;615.00;2432.00;;;;;;5092171;28;20024;-61
2023/09/15 09:04:10;;;;;;;14.52;11.15;;;615.30;2432.00;;;;;;5091993;28;20099;-60
2023/09/15 09:06:36;;;;;;;13.60;11.93;;;640.10;2432.00;;;;;;5092381;28;20028;-61
2023/09/15 09:09:04;;;;;;;24.70;14.60;;;615.30;2432.00;;;;;;5092017;28;20032;-60
2023/09/15 09:11:30;;;;;;;12.00;10.32;;;615.30;2432.00;;;;;;5091393;28;20049;-60
2023/09/15 09:13:56;;;;;;;11.88;10.70;;;615.20;2432.00;;;;;;5090823;28;20047;-61
2023/09/15 09:16:22;;;;;;;12.55;11.20;;;615.20;2432.00;;;;;;5092160;28;20108;-61
2023/09/15 09:19:03;;;;;;;42.97;15.27;;;615.10;2432.00;;;;;;5091554;28;20087;-61
2023/09/15 09:21:31;;;;;;;11.77;10.45;;;615.10;2432.00;;;;;;5090950;28;20064;-61
2023/09/15 09:23:57;;;;;;;11.90;10.10;;;615.10;2432.00;;;;;;5091877;28;20030;-62
2023/09/15 09:26:23;;;;;;;11.73;10.00;;;615.00;2432.00;;;;;;5084267;28;20111;-61
2023/09/15 09:28:49;;;;;;;12.10;10.90;;;615.10;2432.00;;;;;;5071264;28;20070;-61
2023/09/15 09:31:16;;;;;;;11.75;10.10;;;614.80;2432.00;;;;;;5085312;28;20449;-60
2023/09/15 09:33:42;;;;;;;10.88;9.88;;;614.70;2432.00;;;;;;5091475;28;20036;-61
2023/09/15 09:36:10;;;;;;;12.43;9.98;;;614.80;2432.00;;;;;;5091351;28;20028;-59
2023/09/15 09:38:36;;;;;;;11.75;10.35;;;614.80;2432.00;;;;;;5091366;28;20042;-62
2023/09/15 09:41:04;;;;;;;12.00;10.80;;;614.80;2432.00;;;;;;5091259;28;20063;-61
2023/09/15 09:43:32;;;;;;;13.55;11.80;;;614.70;2432.00;;;;;;5091061;28;20032;-61
2023/09/15 09:45:58;;;;;;;15.15;11.85;;;614.80;2432.00;;;;;;5090496;28;20099;-61
2023/09/15 09:48:26;;;;;;;11.68;10.48;;;614.80;2432.00;;;;;;5091876;28;20169;-61
2023/09/15 09:50:54;;;;;;;12.48;11.27;;;614.80;2432.00;;;;;;5091482;28;20366;-61
2023/09/15 09:53:34;;;;;;;15.80;11.80;;;614.80;2432.00;;;;;;5090372;28;20128;-61
2023/09/15 09:56:06;;;;;;;13.68;12.25;;;615.00;2432.00;;;;;;5067205;28;20020;-61
2023/09/15 09:58:33;;;;;;;12.80;10.63;;;614.80;2432.00;;;;;;5091361;28;20475;-61
2023/09/15 10:00:59;;;;;;;11.75;10.63;;;615.20;2432.00;;;;;;5074253;28;20111;-61
2023/09/15 10:03:25;;;;;;;15.27;11.50;;;640.20;2432.00;;;;;;5084599;28;20020;-61
2023/09/15 10:05:54;;;;;;;13.60;12.18;;;640.30;2432.00;;;;;;5090740;28;20020;-61
2023/09/15 10:08:20;;;;;;;14.93;10.77;;;640.50;2432.00;;;;;;5090633;28;20040;-61
2023/09/15 10:10:49;;;;;;;11.98;10.77;;;640.60;2432.00;;;;;;5090942;28;20035;-61
2023/09/15 10:13:16;;;;;;;10.70;9.60;;;640.80;2432.00;;;;;;5090594;28;20031;-61
2023/09/15 10:15:43;;;;;;;15.38;11.68;;;640.50;2432.00;;;;;;5090978;28;20028;-61
2023/09/15 10:18:12;;;;;;;11.00;9.90;;;640.30;2432.00;;;;;;5090538;28;20024;-60
2023/09/15 10:20:41;;;;;;;12.07;10.60;;;640.70;2432.00;;;;;;5090954;28;20024;-62
2023/09/15 10:23:07;;;;;;;13.15;10.18;;;665.80;2432.00;;;;;;5090269;28;20070;-62
2023/09/15 10:25:43;;;;;;;11.82;10.63;;;665.90;2432.00;;;;;;5085158;28;20029;-61
2023/09/15 10:28:13;;;;;;;10.98;9.88;;;666.20;2432.00;;;;;;5070516;28;20102;-61
2023/09/15 10:30:39;;;;;;;10.45;8.98;;;666.40;2432.00;;;;;;5063156;28;20028;-62
2023/09/15 10:33:09;;;;;;;10.57;8.75;;;666.50;2432.00;;;;;;5057629;28;20032;-61
2023/09/15 10:35:43;;;;;;;9.05;8.10;;;666.50;2432.00;;;;;;5070394;28;20371;-62
2023/09/15 10:38:09;;;;;;;9.70;8.68;;;691.30;2432.00;;;;;;5073694;28;20036;-61
2023/09/15 10:40:48;;;;;;;9.10;7.82;;;691.40;2432.00;;;;;;5085262;28;20138;-60
2023/09/15 10:43:18;;;;;;;9.23;7.72;;;691.70;2432.00;;;;;;5080423;28;20395;-61
2023/09/15 10:46:02;;;;;;;9.55;8.55;;;691.70;2432.00;;;;;;5070034;28;20067;-61
2023/09/15 10:48:47;;;;;;;10.10;8.93;;;691.80;2432.00;;;;;;5070076;28;20021;-61
2023/09/15 10:51:22;;;;;;;9.45;8.35;;;691.90;2432.00;;;;;;5089929;28;20032;-61
2023/09/15 10:53:50;;;;;;;9.55;8.55;;;716.90;2432.00;;;;;;5089664;28;20118;-61
2023/09/15 10:56:17;;;;;;;8.40;7.53;;;;;;;;;;5088169;28;20075;-62
2023/09/15 10:58:46;;;;;;;9.65;7.55;;;;;;;;;;5089963;28;20398;-62
2023/09/15 11:01:13;;;;;;;8.65;7.45;;;;;;;;;;5088456;28;20478;-62
2023/09/15 11:03:39;;;;;;;8.10;7.18;;;;;;;;;;5072813;28;20050;-62
2023/09/15 11:06:08;;;;;;;7.50;6.75;;;;;;;;;;5076765;28;20036;-61
2023/09/15 11:08:35;;;;;;;7.97;7.13;;;;;;;;;;5088659;28;20423;-62
2023/09/15 11:11:09;;;;;;;8.48;7.50;;;;;;;;;;5088347;28;20393;-61
2023/09/15 11:13:35;;;;;;;7.78;7.07;;;;;;;;;;5088089;28;20030;-62
2023/09/15 11:16:02;;;;;;;10.20;7.78;;;;;;;;;;5087617;28;20347;-61
2023/09/15 11:18:28;;;;;;;7.15;6.45;;;;;;;;;;5088432;28;20101;-62
2023/09/15 11:20:58;;;;;;;9.55;7.97;;;;;;;;;;5087857;28;20095;-62
2023/09/15 11:23:24;;;;;;;8.15;7.38;;;;;;;;;;5088207;28;20027;-61
2023/09/15 11:26:01;;;;;;;12.88;6.78;;;;;;;;;;5087678;28;20020;-62
2023/09/15 11:28:28;;;;;;;7.00;6.30;;;;;;;;;;5089840;28;20016;-62
2023/09/15 11:30:54;;;;;;;6.40;5.80;;;;;;;;;;5088941;28;20031;-61
2023/09/15 11:33:20;;;;;;;8.15;6.03;;;;;;;;;;5079933;28;20094;-61
2023/09/15 11:35:50;;;;;;;7.80;6.50;;;;;;;;;;5073912;28;20382;-62
2023/09/15 11:38:16;;;;;;;7.15;6.45;;;;;;;;;;5069130;28;20089;-60
2023/09/15 11:40:46;;;;;;;7.50;6.78;;;;;;;;;;5074744;28;20049;-60
2023/09/15 11:43:15;;;;;;;7.35;6.50;;;;;;;;;;5078970;28;20060;-61
2023/09/15 11:45:43;;;;;;;7.32;6.10;;;;;;;;;;5088579;28;20517;-61
2023/09/15 11:48:11;;;;;;;7.60;5.78;;;;;;;;;;5085495;28;20078;-61
2023/09/15 11:50:37;;;;;;;8.95;5.90;;;;;;;;;;5069595;28;20075;-61
2023/09/15 11:53:03;;;;;;;6.68;5.97;;;;;;;;;;5070782;28;20122;-61
2023/09/15 11:55:30;;;;;;;7.35;6.55;;;;;;;;;;5072865;28;20028;-61
2023/09/15 11:57:57;;;;;;;7.68;6.70;;;;;;;;;;5068722;28;20024;-61
2023/09/15 12:00:24;;;;;;;8.93;8.02;;;;;;;;;;5069128;28;20029;-61
2023/09/15 12:02:53;;;;;;;6.25;5.28;;;;;;;;;;5068722;28;20037;-62
2023/09/15 12:05:20;;;;;;;6.53;5.53;;;;;;;;;;5068515;28;20035;-62
2023/09/15 12:07:46;;;;;;;7.88;5.22;;;;;;;;;;5068986;28;20029;-63
2023/09/15 12:10:16;;;;;;;5.53;4.93;;;;;;;;;;5061464;28;20025;-62
2023/09/15 12:12:43;;;;;;;5.65;5.13;;;;;;;;;;5079991;28;20044;-62
2023/09/15 12:15:09;;;;;;;6.03;5.43;;;;;;;;;;5069158;28;20020;-62
2023/09/15 12:17:36;;;;;;;7.07;5.07;;;;;;;;;;5083042;28;20047;-61
2023/09/15 12:20:06;;;;;;;7.28;5.55;;;;;;;;;;5092447;28;20020;-62
2023/09/15 12:22:32;;;;;;;5.45;4.95;;;;;;;;;;5074930;28;20021;-61
2023/09/15 12:24:59;;;;;;;5.28;4.78;;;;;;;;;;5070357;28;20103;-61